createdAt,value
2019-02-22T00:01:02.032Z,16.30
2019-02-22T00:03:30.498Z,17.07
2019-02-22T00:05:58.948Z,18.73
2019-02-22T00:08:27.381Z,18.33
2019-02-22T00:10:55.809Z,19.03
2019-02-22T00:13:24.616Z,17.33
2019-02-22T00:15:53.046Z,14.77
2019-02-22T00:18:21.479Z,17.60
2019-02-22T00:20:49.924Z,16.50
2019-02-22T00:23:18.365Z,14.13
2019-02-22T00:25:46.810Z,21.23
2019-02-22T00:28:15.266Z,18.17
2019-02-22T00:30:43.710Z,17.50
2019-02-22T00:33:12.146Z,15.33
2019-02-22T00:35:40.612Z,20.67
2019-02-22T00:38:09.041Z,19.00
2019-02-22T00:40:37.490Z,22.93
2019-02-22T00:43:05.950Z,22.00
2019-02-22T00:45:34.411Z,17.33
2019-02-22T00:48:02.861Z,15.83
2019-02-22T00:50:31.676Z,16.37
2019-02-22T00:53:00.121Z,17.23
2019-02-22T00:55:28.578Z,17.80
2019-02-22T00:57:57.041Z,18.50
2019-02-22T01:00:25.486Z,20.43
2019-02-22T01:02:53.945Z,16.50
2019-02-22T01:05:22.777Z,17.67
2019-02-22T01:07:51.255Z,19.73
2019-02-22T01:10:30.438Z,18.13
2019-02-22T01:12:49.839Z,19.07
2019-02-22T01:15:18.282Z,18.10
2019-02-22T01:17:46.747Z,17.13
2019-02-22T01:20:15.276Z,18.23
2019-02-22T01:22:43.751Z,18.63
2019-02-22T01:25:12.196Z,18.37
2019-02-22T01:27:40.638Z,16.47
2019-02-22T01:30:10.748Z,20.50
2019-02-22T01:32:39.526Z,21.30
2019-02-22T01:35:07.993Z,21.83
2019-02-22T01:37:36.422Z,19.47
2019-02-22T01:40:07.909Z,17.53
2019-02-22T01:42:36.356Z,17.10
2019-02-22T01:45:05.481Z,20.10
2019-02-22T01:47:34.177Z,20.03
2019-02-22T01:50:02.629Z,18.57
2019-02-22T01:52:31.068Z,15.57
2019-02-22T01:54:59.836Z,22.27
2019-02-22T01:57:28.273Z,16.90
2019-02-22T01:59:57.090Z,19.77
2019-02-22T02:02:25.658Z,17.33
2019-02-22T02:04:54.084Z,16.30
2019-02-22T02:07:22.527Z,19.87
2019-02-22T02:09:51.318Z,23.97
2019-02-22T02:12:19.777Z,14.87
2019-02-22T02:14:48.487Z,17.60
2019-02-22T02:17:17.808Z,16.90
2019-02-22T02:19:46.714Z,21.20
2019-02-22T02:22:15.183Z,17.17
2019-02-22T02:24:43.670Z,22.17
2019-02-22T02:27:12.115Z,19.97
2019-02-22T02:29:40.543Z,17.57
2019-02-22T02:32:09.022Z,17.87
2019-02-22T02:34:37.481Z,20.70
2019-02-22T02:37:05.949Z,20.60
2019-02-22T02:39:34.454Z,17.00
2019-02-22T02:42:02.881Z,16.23
2019-02-22T02:44:31.339Z,17.07
2019-02-22T02:46:59.795Z,19.20
2019-02-22T02:49:28.239Z,14.90
2019-02-22T02:51:57.034Z,19.93
2019-02-22T02:54:25.492Z,16.37
2019-02-22T02:56:54.019Z,16.37
2019-02-22T02:59:22.446Z,21.53
2019-02-22T03:01:50.873Z,19.80
2019-02-22T03:04:19.320Z,18.23
2019-02-22T03:06:49.579Z,16.67
2019-02-22T03:09:18.328Z,20.07
2019-02-22T03:11:46.777Z,20.70
2019-02-22T03:14:15.213Z,23.97
2019-02-22T03:16:43.657Z,18.33
2019-02-22T03:19:12.118Z,19.80
2019-02-22T03:21:40.580Z,21.60
2019-02-22T03:24:09.029Z,17.83
2019-02-22T03:26:37.464Z,22.77
2019-02-22T03:29:05.921Z,21.67
2019-02-22T03:31:34.369Z,21.30
2019-02-22T03:34:02.889Z,22.43
2019-02-22T03:36:31.331Z,18.87
2019-02-22T03:38:59.770Z,22.80
2019-02-22T03:41:33.011Z,21.40
2019-02-22T03:43:58.413Z,22.00
2019-02-22T03:46:26.852Z,22.80
2019-02-22T03:48:55.317Z,22.37
2019-02-22T03:51:23.737Z,25.30
2019-02-22T03:53:53.461Z,25.43
2019-02-22T03:56:21.915Z,23.90
2019-02-22T03:58:50.358Z,21.30
2019-02-22T04:01:18.800Z,24.63
2019-02-22T04:03:47.633Z,20.37
2019-02-22T04:06:16.129Z,28.20
2019-02-22T04:08:44.611Z,26.17
2019-02-22T04:11:13.063Z,24.13
2019-02-22T04:13:41.520Z,22.10
2019-02-22T04:16:10.228Z,24.67
2019-02-22T04:18:38.703Z,27.07
2019-02-22T04:21:07.206Z,26.60
2019-02-22T04:23:35.666Z,30.33
2019-02-22T04:26:04.109Z,28.13
2019-02-22T04:28:32.576Z,24.73
2019-02-22T04:31:01.432Z,28.10
2019-02-22T04:33:29.893Z,29.03
2019-02-22T04:35:58.335Z,21.87
2019-02-22T04:38:26.776Z,23.83
2019-02-22T04:40:55.240Z,25.90
2019-02-22T04:43:23.722Z,22.00
2019-02-22T04:45:52.229Z,28.53
2019-02-22T04:48:20.684Z,25.43
2019-02-22T04:50:49.136Z,25.20
2019-02-22T04:53:17.572Z,28.97
2019-02-22T04:55:46.323Z,24.17
2019-02-22T04:58:14.806Z,27.17
2019-02-22T05:00:43.288Z,24.37
2019-02-22T05:03:11.751Z,22.90
2019-02-22T05:05:40.196Z,26.20
2019-02-22T05:08:08.646Z,23.20
2019-02-22T05:10:37.391Z,23.97
2019-02-22T05:13:06.185Z,24.43
2019-02-22T05:15:34.716Z,28.10
2019-02-22T05:18:03.213Z,31.87
2019-02-22T05:20:31.646Z,27.13
2019-02-22T05:23:03.893Z,26.03
2019-02-22T05:25:30.273Z,25.80
2019-02-22T05:27:59.009Z,24.23
2019-02-22T05:30:27.467Z,25.50
2019-02-22T05:32:55.904Z,25.87
2019-02-22T05:35:24.654Z,26.73
2019-02-22T05:37:53.077Z,27.13
2019-02-22T05:40:21.526Z,36.60
2019-02-22T05:42:50.019Z,28.77
2019-02-22T05:45:18.464Z,26.07
2019-02-22T05:47:46.910Z,29.70
2019-02-22T05:50:15.351Z,29.90
2019-02-22T05:52:43.793Z,30.50
2019-02-22T05:55:12.236Z,27.37
2019-02-22T05:57:41.036Z,27.80
2019-02-22T06:00:09.937Z,29.90
2019-02-22T06:02:38.436Z,28.73
2019-02-22T06:05:07.792Z,31.63
2019-02-22T06:07:36.263Z,28.60
2019-02-22T06:10:07.502Z,28.60
2019-02-22T06:12:35.987Z,27.30
2019-02-22T06:15:06.606Z,28.50
2019-02-22T06:17:35.066Z,24.67
2019-02-22T06:20:05.934Z,28.40
2019-02-22T06:22:34.458Z,34.87
2019-02-22T06:25:02.975Z,27.13
2019-02-22T06:27:31.630Z,30.60
2019-02-22T06:30:00.558Z,30.70
2019-02-22T06:32:29.059Z,30.10
2019-02-22T06:34:57.795Z,30.60
2019-02-22T06:37:26.257Z,27.50
2019-02-22T06:39:54.686Z,30.30
2019-02-22T06:42:23.843Z,29.77
2019-02-22T06:44:52.290Z,39.17
2019-02-22T06:47:22.785Z,26.77
2019-02-22T06:49:50.880Z,30.40
2019-02-22T06:52:19.306Z,28.93
2019-02-22T06:54:48.277Z,32.63
2019-02-22T06:57:16.702Z,28.03
2019-02-22T06:59:45.176Z,32.23
2019-02-22T07:02:13.642Z,29.53
2019-02-22T07:04:42.102Z,32.70
2019-02-22T07:07:10.557Z,32.33
2019-02-22T07:09:38.997Z,31.13
2019-02-22T07:12:09.404Z,34.50
2019-02-22T07:14:37.861Z,30.57
2019-02-22T07:17:07.019Z,29.67
2019-02-22T07:19:35.483Z,28.27
2019-02-22T07:22:03.922Z,30.80
2019-02-22T07:24:32.362Z,30.80
2019-02-22T07:27:00.800Z,28.67
2019-02-22T07:29:29.314Z,29.13
2019-02-22T07:32:05.214Z,31.43
2019-02-22T07:34:27.941Z,27.47
2019-02-22T07:36:56.671Z,31.47
2019-02-22T07:39:28.111Z,36.57
2019-02-22T07:41:55.419Z,36.23
2019-02-22T07:44:23.862Z,31.20
2019-02-22T07:46:52.315Z,34.93
2019-02-22T07:49:23.455Z,33.07
2019-02-22T07:51:51.968Z,30.23
2019-02-22T07:54:20.399Z,32.37
2019-02-22T07:56:48.874Z,36.50
2019-02-22T07:59:17.308Z,30.90
2019-02-22T08:01:47.931Z,33.70
2019-02-22T08:04:16.190Z,30.27
2019-02-22T08:06:44.722Z,32.30
2019-02-22T08:09:13.180Z,37.17
2019-02-22T08:11:42.046Z,32.60
2019-02-22T08:14:10.540Z,34.17
2019-02-22T08:16:38.983Z,31.53
2019-02-22T08:19:07.442Z,32.17
2019-02-22T08:21:35.879Z,32.43
2019-02-22T08:24:04.307Z,30.13
2019-02-22T08:26:32.739Z,29.47
2019-02-22T08:29:01.495Z,30.83
2019-02-22T08:31:30.030Z,35.77
2019-02-22T08:33:58.766Z,30.53
2019-02-22T08:36:27.548Z,29.83
2019-02-22T08:38:55.999Z,34.70
2019-02-22T08:41:24.520Z,33.73
2019-02-22T08:43:52.971Z,31.70
2019-02-22T08:46:21.414Z,31.73
2019-02-22T08:48:49.864Z,33.03
2019-02-22T08:51:18.313Z,31.87
2019-02-22T08:53:47.026Z,33.93
2019-02-22T08:56:15.508Z,32.77
2019-02-22T08:58:43.991Z,31.40
2019-02-22T09:01:12.423Z,31.27
2019-02-22T09:03:49.810Z,31.13
2019-02-22T09:06:11.184Z,28.80
2019-02-22T09:08:39.632Z,31.07
2019-02-22T09:11:08.369Z,26.27
2019-02-22T09:13:43.603Z,29.23
2019-02-22T09:16:07.032Z,28.93
2019-02-22T09:18:35.661Z,27.53
2019-02-22T09:21:04.097Z,37.47
2019-02-22T09:23:32.555Z,34.00
2019-02-22T09:26:01.312Z,31.73
2019-02-22T09:28:30.106Z,28.27
2019-02-22T09:30:58.527Z,30.33
2019-02-22T09:33:26.966Z,30.37
2019-02-22T09:35:55.423Z,29.27
2019-02-22T09:38:23.877Z,33.07
2019-02-22T09:40:52.328Z,29.70
2019-02-22T09:43:20.794Z,31.07
2019-02-22T09:45:49.299Z,34.43
2019-02-22T09:48:17.758Z,33.83
2019-02-22T09:50:46.462Z,33.83
2019-02-22T09:53:14.929Z,27.53
2019-02-22T09:55:43.350Z,30.83
2019-02-22T09:58:12.162Z,27.77
2019-02-22T10:00:40.964Z,27.63
2019-02-22T10:03:09.426Z,28.93
2019-02-22T10:05:37.862Z,25.73
2019-02-22T10:08:06.337Z,28.00
2019-02-22T10:10:34.785Z,27.10
2019-02-22T10:13:03.235Z,26.33
2019-02-22T10:15:31.926Z,31.23
2019-02-22T10:18:00.398Z,29.90
2019-02-22T10:20:28.864Z,24.77
2019-02-22T10:22:57.318Z,23.57
2019-02-22T10:25:25.746Z,23.20
2019-02-22T10:27:54.234Z,24.47
2019-02-22T10:30:22.682Z,23.17
2019-02-22T10:32:51.128Z,22.90
2019-02-22T10:35:19.592Z,19.63
2019-02-22T10:37:48.358Z,19.37
2019-02-22T10:40:16.808Z,20.07
2019-02-22T10:42:45.278Z,19.50
2019-02-22T10:45:13.880Z,18.10
2019-02-22T10:47:42.386Z,15.67
2019-02-22T10:50:11.274Z,18.73
2019-02-22T10:52:39.702Z,15.97
2019-02-22T10:55:11.333Z,14.00
2019-02-22T10:57:39.844Z,13.07
2019-02-22T11:00:13.919Z,12.50
2019-02-22T11:02:42.364Z,13.83
2019-02-22T11:05:11.654Z,13.63
2019-02-22T11:07:40.256Z,11.43
2019-02-22T11:10:15.886Z,11.67
2019-02-22T11:12:47.571Z,13.30
2019-02-22T11:15:16.307Z,12.00
2019-02-22T11:17:48.603Z,8.23
2019-02-22T11:20:17.075Z,9.87
2019-02-22T11:22:45.606Z,9.57
2019-02-22T11:25:16.554Z,9.80
2019-02-22T11:27:45.036Z,10.97
2019-02-22T11:30:14.924Z,8.37
2019-02-22T11:32:43.452Z,9.23
2019-02-22T11:35:11.874Z,9.47
2019-02-22T11:37:40.319Z,9.40
2019-02-22T11:40:10.963Z,10.80
2019-02-22T11:42:39.399Z,10.00
2019-02-22T11:45:09.487Z,8.50
2019-02-22T11:47:38.233Z,8.53
2019-02-22T11:50:11.742Z,9.60
2019-02-22T11:52:40.453Z,11.37
2019-02-22T11:55:10.748Z,11.90
2019-02-22T11:57:47.562Z,12.57
2019-02-22T12:00:18.258Z,11.57
2019-02-22T12:02:47.580Z,11.60
2019-02-22T12:05:16.052Z,14.50
2019-02-22T12:07:44.486Z,13.40
2019-02-22T12:10:13.605Z,13.70
2019-02-22T12:12:42.227Z,14.73
2019-02-22T12:15:13.167Z,15.87
2019-02-22T12:17:41.597Z,20.13
2019-02-22T12:20:11.373Z,16.87
2019-02-22T12:22:39.827Z,14.13
2019-02-22T12:25:10.591Z,13.77
2019-02-22T12:27:39.070Z,11.37
2019-02-22T12:30:14.768Z,13.00
2019-02-22T12:32:43.228Z,13.87
2019-02-22T12:35:12.057Z,14.17
2019-02-22T12:37:40.508Z,13.17
2019-02-22T12:40:10.798Z,13.13
2019-02-22T12:42:39.267Z,10.93
2019-02-22T12:45:10.197Z,10.97
2019-02-22T12:47:38.634Z,12.23
2019-02-22T12:50:10.156Z,11.00
2019-02-22T12:52:38.592Z,12.10
2019-02-22T12:55:11.046Z,11.03
2019-02-22T12:57:39.496Z,12.13
2019-02-22T13:00:13.680Z,14.20
2019-02-22T13:02:42.187Z,8.57
2019-02-22T13:05:13.911Z,9.03
2019-02-22T13:07:42.338Z,8.13
2019-02-22T13:10:10.947Z,9.23
2019-02-22T13:12:39.371Z,7.43
2019-02-22T13:15:14.096Z,11.47
2019-02-22T13:17:40.515Z,10.10
2019-02-22T13:20:09.890Z,11.67
2019-02-22T13:22:38.310Z,9.80
2019-02-22T13:25:09.113Z,10.43
2019-02-22T13:27:37.544Z,9.17
2019-02-22T13:30:12.456Z,11.03
2019-02-22T13:32:40.885Z,11.50
2019-02-22T13:35:10.928Z,11.13
2019-02-22T13:37:39.545Z,8.83
2019-02-22T13:40:14.142Z,14.03
2019-02-22T13:42:43.186Z,12.50
2019-02-22T13:45:13.117Z,10.47
2019-02-22T13:47:41.654Z,9.30
2019-02-22T13:50:12.839Z,11.20
2019-02-22T13:52:41.551Z,10.80
2019-02-22T13:55:10.714Z,10.37
2019-02-22T13:57:39.155Z,9.97
2019-02-22T14:00:16.341Z,10.97
2019-02-22T14:02:44.765Z,11.63
2019-02-22T14:05:13.741Z,14.60
2019-02-22T14:07:56.199Z,11.07
2019-02-22T14:10:25.741Z,13.63
2019-02-22T14:12:54.262Z,13.70
2019-02-22T14:15:22.769Z,12.63
2019-02-22T14:17:51.258Z,9.63
2019-02-22T14:20:19.775Z,10.63
2019-02-22T14:22:50.283Z,10.37
2019-02-22T14:25:18.708Z,8.17
2019-02-22T14:27:47.158Z,10.40
2019-02-22T14:30:17.310Z,8.90
2019-02-22T14:32:46.469Z,6.17
2019-02-22T14:35:15.230Z,5.70
2019-02-22T14:37:43.851Z,5.30
2019-02-22T14:40:13.711Z,7.47
2019-02-22T14:42:42.156Z,9.13
2019-02-22T14:45:11.821Z,6.27
2019-02-22T14:47:40.253Z,6.40
2019-02-22T14:50:14.669Z,5.07
2019-02-22T14:52:43.268Z,6.50
2019-02-22T14:55:11.686Z,3.90
2019-02-22T14:57:40.132Z,5.27
2019-02-22T15:00:12.846Z,5.13
2019-02-22T15:02:41.297Z,4.13
2019-02-22T15:05:11.737Z,4.77
2019-02-22T15:07:40.179Z,4.17
2019-02-22T15:10:10.045Z,5.40
2019-02-22T15:12:38.520Z,9.67
2019-02-22T15:15:17.150Z,5.30
2019-02-22T15:17:52.689Z,4.40
2019-02-22T15:20:21.119Z,3.97
2019-02-22T15:22:49.557Z,4.67
2019-02-22T15:25:19.238Z,3.93
2019-02-22T15:27:47.679Z,6.13
2019-02-22T15:30:17.339Z,4.00
2019-02-22T15:32:45.790Z,4.23
2019-02-22T15:35:18.322Z,3.93
2019-02-22T15:37:47.125Z,4.27
2019-02-22T15:40:15.936Z,5.13
2019-02-22T15:42:44.362Z,4.53
2019-02-22T15:45:18.085Z,5.77
2019-02-22T15:47:48.618Z,6.47
2019-02-22T15:50:19.472Z,4.80
2019-02-22T15:52:49.369Z,4.00
2019-02-22T15:55:18.082Z,6.90
2019-02-22T15:57:46.517Z,3.87
2019-02-22T16:00:29.525Z,9.83
2019-02-22T16:02:57.939Z,16.17
2019-02-22T16:05:30.957Z,8.80
2019-02-22T16:07:59.383Z,6.23
2019-02-22T16:10:27.804Z,5.90
2019-02-22T16:12:56.224Z,6.50
2019-02-22T16:15:25.043Z,5.43
2019-02-22T16:17:53.541Z,5.80
2019-02-22T16:20:22.226Z,4.30
2019-02-22T16:22:51.586Z,7.20
2019-02-22T16:25:20.534Z,4.93
2019-02-22T16:27:49.015Z,8.70
2019-02-22T16:30:19.754Z,6.17
2019-02-22T16:32:48.648Z,6.03
2019-02-22T16:35:17.051Z,4.17
2019-02-22T16:37:45.467Z,3.40
2019-02-22T16:40:13.933Z,6.37
2019-02-22T16:42:42.432Z,3.53
2019-02-22T16:45:14.237Z,3.77
2019-02-22T16:47:42.649Z,3.30
2019-02-22T16:50:12.728Z,3.53
2019-02-22T16:52:41.140Z,5.60
2019-02-22T16:55:15.187Z,5.13
2019-02-22T16:57:43.622Z,6.83
2019-02-22T17:00:14.900Z,6.87
2019-02-22T17:02:43.587Z,8.03
2019-02-22T17:05:14.634Z,5.20
2019-02-22T17:07:43.055Z,9.87
2019-02-22T17:10:12.032Z,7.60
2019-02-22T17:12:40.455Z,6.53
2019-02-22T17:15:13.751Z,5.87
2019-02-22T17:17:42.390Z,7.77
2019-02-22T17:20:13.304Z,9.10
2019-02-22T17:22:41.720Z,5.60
2019-02-22T17:25:21.733Z,10.57
2019-02-22T17:27:50.511Z,4.70
2019-02-22T17:30:23.497Z,5.33
2019-02-22T17:32:51.987Z,4.73
2019-02-22T17:35:20.390Z,7.30
2019-02-22T17:37:48.823Z,38.67
2019-02-22T17:40:22.971Z,42.37
2019-02-22T17:42:51.392Z,14.93
2019-02-22T17:45:19.803Z,7.23
2019-02-22T17:47:48.217Z,6.13
2019-02-22T17:50:16.829Z,5.87
2019-02-22T17:52:45.643Z,4.20
2019-02-22T17:55:14.055Z,4.43
2019-02-22T17:57:42.489Z,3.93
2019-02-22T18:00:15.253Z,3.70
2019-02-22T18:02:43.658Z,5.20
2019-02-22T18:05:12.425Z,8.50
2019-02-22T18:07:40.821Z,8.07
2019-02-22T18:10:11.050Z,7.73
2019-02-22T18:12:39.516Z,6.63
2019-02-22T18:15:10.851Z,8.00
2019-02-22T18:17:40.090Z,8.53
2019-02-22T18:20:09.243Z,5.87
2019-02-22T18:22:37.670Z,7.70
2019-02-22T18:25:08.242Z,9.03
2019-02-22T18:27:36.641Z,8.77
2019-02-22T18:30:10.664Z,17.03
2019-02-22T18:32:39.072Z,14.30
2019-02-22T18:35:08.225Z,12.77
2019-02-22T18:37:36.651Z,16.23
2019-02-22T18:40:10.649Z,17.63
2019-02-22T18:42:39.049Z,13.90
2019-02-22T18:45:09.214Z,10.60
2019-02-22T18:47:37.627Z,11.50
2019-02-22T18:50:09.103Z,14.33
2019-02-22T18:52:37.521Z,14.40
2019-02-22T18:55:08.389Z,16.87
2019-02-22T18:57:36.794Z,15.53
2019-02-22T19:00:08.287Z,33.27
2019-02-22T19:02:36.703Z,20.03
2019-02-22T19:05:07.062Z,11.50
2019-02-22T19:07:35.477Z,12.67
2019-02-22T19:10:06.404Z,9.90
2019-02-22T19:12:34.802Z,10.50
2019-02-22T19:15:03.703Z,9.03
2019-02-22T19:17:32.444Z,14.03
2019-02-22T19:20:00.916Z,15.53
2019-02-22T19:22:29.327Z,19.30
2019-02-22T19:24:57.738Z,15.27
2019-02-22T19:27:26.219Z,15.73
2019-02-22T19:29:54.765Z,20.60
2019-02-22T19:32:23.341Z,15.73
2019-02-22T19:34:51.781Z,14.33
2019-02-22T19:37:20.289Z,13.83
2019-02-22T19:39:48.702Z,11.43
2019-02-22T19:42:17.131Z,12.43
2019-02-22T19:44:45.572Z,11.97
2019-02-22T19:47:14.030Z,11.17
2019-02-22T19:49:42.816Z,12.90
2019-02-22T19:52:11.235Z,18.23
2019-02-22T19:54:39.685Z,10.73
2019-02-22T19:57:08.140Z,14.27
2019-02-22T19:59:36.553Z,12.80
2019-02-22T20:02:05.098Z,15.80
2019-02-22T20:04:33.514Z,11.93
2019-02-22T20:07:01.937Z,10.77
2019-02-22T20:09:30.346Z,12.97
2019-02-22T20:11:58.775Z,10.80
2019-02-22T20:14:27.477Z,9.43
2019-02-22T20:16:55.901Z,12.03
2019-02-22T20:19:24.662Z,11.17
2019-02-22T20:21:53.059Z,13.83
2019-02-22T20:24:21.477Z,12.43
2019-02-22T20:26:49.899Z,17.30
2019-02-22T20:29:18.315Z,13.93
2019-02-22T20:31:46.779Z,16.57
2019-02-22T20:34:15.516Z,14.87
2019-02-22T20:36:44.239Z,12.10
2019-02-22T20:39:12.903Z,11.43
2019-02-22T20:41:41.321Z,12.80
2019-02-22T20:44:09.739Z,13.97
2019-02-22T20:46:38.269Z,12.60
2019-02-22T20:49:07.027Z,13.63
2019-02-22T20:51:35.490Z,14.50
2019-02-22T20:54:03.908Z,13.43
2019-02-22T20:56:32.324Z,19.77
2019-02-22T20:59:08.978Z,25.90
2019-02-22T21:01:37.439Z,23.90
2019-02-22T21:04:05.857Z,16.83
2019-02-22T21:06:34.315Z,12.17
2019-02-22T21:09:04.064Z,15.40
2019-02-22T21:11:32.757Z,11.43
2019-02-22T21:14:01.178Z,10.10
2019-02-22T21:16:29.595Z,11.27
2019-02-22T21:18:58.017Z,11.10
2019-02-22T21:21:26.412Z,10.93
2019-02-22T21:23:54.840Z,11.93
2019-02-22T21:26:23.258Z,11.73
2019-02-22T21:28:51.665Z,12.23
2019-02-22T21:31:20.093Z,14.77
2019-02-22T21:33:48.501Z,15.50
2019-02-22T21:36:17.248Z,10.90
2019-02-22T21:38:45.655Z,12.17
2019-02-22T21:41:16.277Z,12.30
2019-02-22T21:43:44.271Z,12.93
2019-02-22T21:46:12.685Z,15.80
2019-02-22T21:48:41.109Z,11.63
2019-02-22T21:51:09.548Z,13.40
2019-02-22T21:53:37.950Z,16.00
2019-02-22T21:56:06.369Z,15.27
2019-02-22T21:58:34.796Z,14.50
2019-02-22T22:01:03.231Z,15.23
2019-02-22T22:03:31.639Z,21.13
2019-02-22T22:06:00.055Z,15.63
2019-02-22T22:08:28.549Z,16.43
2019-02-22T22:10:57.000Z,17.43
2019-02-22T22:13:25.779Z,16.70
2019-02-22T22:15:54.252Z,14.10
2019-02-22T22:18:22.698Z,15.00
2019-02-22T22:20:51.156Z,20.23
2019-02-22T22:23:19.920Z,19.40
2019-02-22T22:25:48.437Z,21.70
2019-02-22T22:28:16.888Z,21.93
2019-02-22T22:30:45.383Z,19.43
2019-02-22T22:33:13.850Z,17.20
2019-02-22T22:35:42.330Z,14.20
2019-02-22T22:38:10.790Z,17.07
2019-02-22T22:40:39.274Z,17.67
2019-02-22T22:43:07.761Z,13.90
2019-02-22T22:45:36.273Z,19.00
2019-02-22T22:48:04.867Z,17.37
2019-02-22T22:50:33.324Z,12.27
2019-02-22T22:53:01.776Z,14.30
2019-02-22T22:55:30.257Z,18.40
2019-02-22T22:57:58.693Z,16.33
2019-02-22T23:00:35.658Z,20.67
2019-02-22T23:03:04.572Z,17.47
2019-02-22T23:05:33.907Z,15.00
2019-02-22T23:08:02.348Z,12.97
2019-02-22T23:10:31.159Z,17.57
2019-02-22T23:12:59.600Z,15.53
2019-02-22T23:15:28.058Z,12.77
2019-02-22T23:17:56.526Z,16.37
2019-02-22T23:20:24.986Z,17.43
2019-02-22T23:22:53.431Z,17.40
2019-02-22T23:25:22.242Z,21.43
2019-02-22T23:27:50.702Z,26.40
2019-02-22T23:30:19.152Z,16.77
2019-02-22T23:32:47.605Z,19.87
2019-02-22T23:35:16.079Z,15.33
2019-02-22T23:37:44.540Z,16.50
2019-02-22T23:40:12.990Z,18.30
2019-02-22T23:42:41.436Z,18.00
2019-02-22T23:45:09.956Z,35.70
2019-02-22T23:47:38.421Z,21.90
2019-02-22T23:50:08.100Z,20.83
2019-02-22T23:52:36.556Z,17.53
2019-02-22T23:55:05.558Z,17.43
2019-02-22T23:57:34.326Z,12.87
